Time;durP1;ratioP1;P1;durP2;ratioP2;P2;SDS_P1;SDS_P2;PMS_P1;PMS_P2;Temp;Humidity;BMP_temperature;BMP_pressure;BME280_temperature;BME280_humidity;BME280_pressure;Samples;Min_cycle;Max_cycle;Signal;HPM_P1;HPM_P2
2023/04/18 00:02:01;;;;;;;7.93;5.43;;;13.30;91.20;;;;;;10492372;28;20020;-67
2023/04/18 00:07:02;;;;;;;8.15;4.78;;;13.20;91.30;;;;;;10510126;28;20027;-67
2023/04/18 00:12:03;;;;;;;8.52;5.72;;;13.20;91.10;;;;;;10484205;28;20052;-67
2023/04/18 00:17:08;;;;;;;8.93;5.43;;;13.20;91.10;;;;;;10500662;28;20031;-67
2023/04/18 00:22:10;;;;;;;8.60;5.60;;;13.20;91.10;;;;;;10504878;28;20107;-67
2023/04/18 00:27:10;;;;;;;9.50;5.10;;;13.10;91.00;;;;;;10492846;28;20361;-67
2023/04/18 00:32:11;;;;;;;8.77;5.50;;;13.10;91.00;;;;;;10494874;28;20385;-67
2023/04/18 00:37:11;;;;;;;6.88;5.05;;;13.20;91.00;;;;;;10494966;28;20012;-67
2023/04/18 00:42:12;;;;;;;9.65;6.40;;;13.00;91.00;;;;;;10494094;28;20430;-67
2023/04/18 00:47:15;;;;;;;9.00;5.20;;;13.00;91.00;;;;;;10493695;28;20028;-67
2023/04/18 00:52:17;;;;;;;9.73;5.30;;;13.00;91.00;;;;;;10500736;28;20024;-67
2023/04/18 00:57:18;;;;;;;8.02;5.40;;;12.90;90.90;;;;;;10499419;28;20036;-68
2023/04/18 01:02:18;;;;;;;8.05;5.25;;;12.90;90.90;;;;;;10469022;28;20036;-67
2023/04/18 01:07:19;;;;;;;8.25;5.10;;;12.90;90.90;;;;;;10476287;28;20029;-68
2023/04/18 01:12:19;;;;;;;7.20;5.15;;;12.90;90.90;;;;;;10481702;28;20021;-67
2023/04/18 01:17:22;;;;;;;9.27;5.35;;;12.80;90.90;;;;;;10474572;28;20028;-67
2023/04/18 01:22:23;;;;;;;8.35;5.28;;;12.80;90.90;;;;;;10492394;28;20039;-67
2023/04/18 01:27:23;;;;;;;8.65;5.68;;;12.80;90.90;;;;;;10489785;28;20385;-67
2023/04/18 01:32:24;;;;;;;10.85;5.72;;;12.70;90.90;;;;;;10483148;28;20021;-68
2023/04/18 01:37:25;;;;;;;9.57;5.60;;;12.70;90.90;;;;;;10477570;28;20036;-67
2023/04/18 01:42:25;;;;;;;7.55;4.93;;;12.70;90.90;;;;;;10473228;28;20039;-68
2023/04/18 01:47:26;;;;;;;8.55;5.22;;;12.60;90.80;;;;;;10476655;28;20024;-68
2023/04/18 01:52:26;;;;;;;8.07;5.18;;;12.60;90.90;;;;;;10475497;28;20101;-67
2023/04/18 01:57:27;;;;;;;8.82;5.30;;;12.60;90.80;;;;;;10492690;28;20446;-67
2023/04/18 02:02:28;;;;;;;8.23;5.25;;;12.60;90.80;;;;;;10483653;28;20025;-68
2023/04/18 02:07:28;;;;;;;6.63;4.75;;;12.60;90.90;;;;;;10483883;28;20543;-67
2023/04/18 02:12:30;;;;;;;8.70;5.78;;;12.50;90.80;;;;;;10492907;28;20415;-67
2023/04/18 02:17:32;;;;;;;7.55;4.97;;;12.50;90.90;;;;;;10477740;28;20094;-67
2023/04/18 02:22:32;;;;;;;7.95;5.18;;;12.50;90.90;;;;;;10475194;28;20174;-67
2023/04/18 02:27:34;;;;;;;6.82;4.75;;;12.40;90.90;;;;;;10478107;28;20040;-67
2023/04/18 02:32:34;;;;;;;7.70;5.30;;;12.40;90.90;;;;;;10484225;28;20182;-68
2023/04/18 02:37:35;;;;;;;7.95;5.40;;;12.40;91.00;;;;;;10480687;28;20025;-68
2023/04/18 02:42:40;;;;;;;8.23;5.53;;;12.30;90.90;;;;;;10478366;28;20440;-67
2023/04/18 02:47:41;;;;;;;7.03;4.75;;;12.30;90.90;;;;;;10479280;28;20020;-66
2023/04/18 02:52:42;;;;;;;8.18;5.15;;;12.30;91.00;;;;;;10485437;28;20024;-67
2023/04/18 02:57:43;;;;;;;6.75;4.88;;;12.30;91.00;;;;;;10481756;28;20103;-67
2023/04/18 03:02:43;;;;;;;7.60;5.00;;;12.20;91.00;;;;;;10479872;28;20430;-67
2023/04/18 03:07:44;;;;;;;6.82;5.32;;;12.20;91.00;;;;;;10480280;28;20077;-67
2023/04/18 03:12:46;;;;;;;7.35;4.80;;;12.20;91.00;;;;;;10484194;28;20029;-67
2023/04/18 03:17:47;;;;;;;7.00;4.97;;;12.10;91.00;;;;;;10493098;28;20016;-67
2023/04/18 03:22:47;;;;;;;8.07;5.40;;;12.10;91.00;;;;;;10488886;28;20614;-67
2023/04/18 03:27:51;;;;;;;8.05;5.10;;;12.10;91.00;;;;;;10487203;28;20037;-67
2023/04/18 03:32:52;;;;;;;8.10;4.72;;;12.10;91.00;;;;;;10484199;28;20476;-67
2023/04/18 03:37:53;;;;;;;7.45;4.95;;;12.10;91.00;;;;;;10483477;28;20029;-67
2023/04/18 03:42:53;;;;;;;8.00;4.70;;;12.00;91.10;;;;;;10478748;28;20367;-67
2023/04/18 03:47:54;;;;;;;9.25;5.22;;;12.00;91.00;;;;;;10488239;28;20032;-67
2023/04/18 03:52:54;;;;;;;6.75;4.90;;;12.60;91.20;;;;;;10498035;28;20052;-67
2023/04/18 03:57:57;;;;;;;8.30;5.38;;;12.00;91.10;;;;;;10486981;28;20044;-67
2023/04/18 04:02:57;;;;;;;7.47;4.80;;;12.00;91.10;;;;;;10479084;28;20043;-67
2023/04/18 04:07:58;;;;;;;7.82;4.72;;;11.90;91.10;;;;;;10486207;28;20028;-67
2023/04/18 04:12:59;;;;;;;7.30;4.70;;;11.90;91.10;;;;;;10493619;28;20043;-67
2023/04/18 04:17:59;;;;;;;7.20;4.95;;;11.90;91.10;;;;;;10483536;28;20028;-67
2023/04/18 04:23:00;;;;;;;7.00;4.68;;;11.90;91.20;;;;;;10483100;28;20054;-67
2023/04/18 04:28:01;;;;;;;7.03;4.70;;;11.80;91.20;;;;;;10491044;28;20028;-67
2023/04/18 04:33:02;;;;;;;8.68;4.65;;;11.80;91.20;;;;;;10492536;28;20066;-67
2023/04/18 04:38:02;;;;;;;8.38;5.50;;;11.80;91.20;;;;;;10486447;28;20389;-67
2023/04/18 04:43:03;;;;;;;8.98;4.65;;;11.80;91.20;;;;;;10485789;28;20086;-67
2023/04/18 04:48:04;;;;;;;8.75;4.78;;;11.80;91.30;;;;;;10485050;28;20035;-67
2023/04/18 04:53:05;;;;;;;8.15;4.82;;;11.80;91.30;;;;;;10491563;28;20017;-67
2023/04/18 04:58:06;;;;;;;7.93;4.78;;;11.70;91.30;;;;;;10491883;28;20020;-67
2023/04/18 05:03:07;;;;;;;7.60;4.70;;;11.70;91.30;;;;;;10486272;28;20114;-67
2023/04/18 05:08:07;;;;;;;8.80;4.30;;;11.70;91.30;;;;;;10491282;28;20222;-67
2023/04/18 05:13:08;;;;;;;7.35;4.40;;;11.70;91.30;;;;;;10494225;28;20024;-67
2023/04/18 05:18:08;;;;;;;6.43;4.05;;;11.70;91.30;;;;;;10480105;28;20029;-67
2023/04/18 05:23:09;;;;;;;8.10;4.75;;;11.70;91.30;;;;;;10485230;28;20086;-67
2023/04/18 05:28:09;;;;;;;8.00;4.70;;;11.70;91.30;;;;;;10488014;28;20020;-69
2023/04/18 05:33:10;;;;;;;7.65;4.10;;;11.70;91.30;;;;;;10488498;28;20024;-67
2023/04/18 05:38:11;;;;;;;7.20;4.38;;;11.70;91.40;;;;;;10484696;28;20021;-67
2023/04/18 05:43:11;;;;;;;7.03;4.35;;;11.70;91.40;;;;;;10491689;28;20024;-66
2023/04/18 05:48:13;;;;;;;6.90;3.97;;;11.70;91.40;;;;;;10488138;28;20024;-66
2023/04/18 05:53:13;;;;;;;6.28;3.88;;;11.70;91.40;;;;;;10490338;28;20067;-66
2023/04/18 05:58:14;;;;;;;7.75;4.40;;;11.70;91.50;;;;;;10481970;28;20614;-66
2023/04/18 06:03:15;;;;;;;9.02;4.40;;;11.70;91.50;;;;;;10471330;28;20031;-66
2023/04/18 06:08:16;;;;;;;8.27;4.82;;;11.70;91.60;;;;;;10488145;28;20025;-66
2023/04/18 06:13:16;;;;;;;8.95;4.20;;;11.70;91.60;;;;;;10477928;28;20067;-66
2023/04/18 06:18:17;;;;;;;8.07;4.45;;;11.70;91.60;;;;;;10476749;28;20112;-66
2023/04/18 06:23:17;;;;;;;16.98;6.72;;;11.70;91.60;;;;;;10480734;28;20040;-66
2023/04/18 06:28:18;;;;;;;9.90;5.10;;;11.70;91.70;;;;;;10483904;28;20040;-67
2023/04/18 06:33:19;;;;;;;8.80;4.90;;;11.60;91.80;;;;;;10481483;28;20020;-65
2023/04/18 06:38:20;;;;;;;9.80;5.28;;;11.60;91.80;;;;;;10485991;28;20450;-66
2023/04/18 06:43:20;;;;;;;9.23;4.80;;;11.60;91.80;;;;;;10487240;28;20392;-65
2023/04/18 06:48:21;;;;;;;8.35;4.38;;;11.60;91.80;;;;;;10486777;28;20496;-65
2023/04/18 06:53:22;;;;;;;7.03;4.43;;;11.70;91.80;;;;;;10481424;28;20028;-66
2023/04/18 06:58:23;;;;;;;9.93;5.57;;;11.70;91.70;;;;;;10483922;28;20101;-66
2023/04/18 07:03:24;;;;;;;6.80;4.15;;;11.70;91.70;;;;;;10480993;28;20506;-65
2023/04/18 07:08:24;;;;;;;7.90;4.28;;;11.80;91.70;;;;;;10478590;28;20488;-66
2023/04/18 07:13:25;;;;;;;8.93;3.95;;;11.80;91.70;;;;;;10491238;28;20016;-66
2023/04/18 07:18:25;;;;;;;8.18;4.65;;;11.80;91.70;;;;;;10485719;28;20032;-66
2023/04/18 07:23:26;;;;;;;9.68;4.57;;;11.80;91.70;;;;;;10491756;28;20538;-66
2023/04/18 07:28:27;;;;;;;6.68;3.92;;;11.90;91.70;;;;;;10477928;28;20978;-66
2023/04/18 07:33:32;;;;;;;5.60;3.63;;;11.90;91.70;;;;;;10479919;28;20083;-66
2023/04/18 07:38:34;;;;;;;7.35;4.63;;;11.90;91.80;;;;;;10474797;28;20031;-66
2023/04/18 07:43:35;;;;;;;7.95;3.97;;;11.90;91.80;;;;;;10478511;28;20405;-65
2023/04/18 07:48:35;;;;;;;5.32;3.80;;;11.90;91.80;;;;;;10481495;28;20024;-66
2023/04/18 07:53:36;;;;;;;7.00;4.28;;;11.90;91.80;;;;;;10488144;28;20019;-65
2023/04/18 07:58:37;;;;;;;8.65;4.68;;;11.90;91.90;;;;;;10479112;28;20044;-65
2023/04/18 08:03:38;;;;;;;6.03;3.95;;;11.90;91.90;;;;;;10487059;28;20434;-66
2023/04/18 08:08:38;;;;;;;4.97;3.80;;;11.90;91.90;;;;;;10498281;28;20395;-65
2023/04/18 08:13:39;;;;;;;6.10;3.78;;;11.90;92.20;;;;;;10491697;28;20024;-66
2023/04/18 08:18:39;;;;;;;6.45;3.42;;;12.00;92.00;;;;;;10489363;28;20039;-66
2023/04/18 08:23:40;;;;;;;6.80;3.90;;;12.00;92.00;;;;;;10491058;28;20028;-65
2023/04/18 08:28:41;;;;;;;7.43;3.92;;;12.00;92.00;;;;;;10488735;28;20016;-66
2023/04/18 08:33:42;;;;;;;5.25;3.50;;;12.10;92.00;;;;;;10483311;28;20506;-66
2023/04/18 08:38:42;;;;;;;5.25;3.63;;;12.10;92.00;;;;;;10485104;28;20031;-65
2023/04/18 08:43:47;;;;;;;6.68;4.00;;;12.20;92.00;;;;;;10482300;28;20059;-65
2023/04/18 08:48:50;;;;;;;5.30;3.65;;;12.20;92.10;;;;;;10487411;28;20051;-64
2023/04/18 08:53:52;;;;;;;6.97;3.72;;;12.20;92.10;;;;;;10496069;28;20017;-64
2023/04/18 08:58:54;;;;;;;6.90;3.65;;;12.20;92.10;;;;;;10486113;28;20106;-64
2023/04/18 09:03:55;;;;;;;5.93;3.42;;;12.20;92.10;;;;;;10470347;28;20027;-66
2023/04/18 09:09:00;;;;;;;5.03;3.22;;;12.20;92.10;;;;;;10486243;28;20387;-65
2023/04/18 09:14:01;;;;;;;5.90;3.20;;;12.30;92.20;;;;;;10487532;28;20017;-66
2023/04/18 09:19:11;;;;;;;6.53;3.92;;;12.30;92.20;;;;;;10478456;28;20012;-64
2023/04/18 09:24:19;;;;;;;4.53;3.40;;;12.30;92.20;;;;;;10481238;28;20507;-64
2023/04/18 09:29:23;;;;;;;5.10;3.43;;;12.30;92.20;;;;;;10480929;28;21046;-64
2023/04/18 09:34:25;;;;;;;4.80;3.15;;;12.30;92.20;;;;;;10477671;28;20066;-66
2023/04/18 09:39:27;;;;;;;6.03;3.63;;;12.30;92.30;;;;;;10488192;28;20025;-63
2023/04/18 09:44:28;;;;;;;5.85;3.75;;;12.30;92.30;;;;;;10495681;28;20027;-65
2023/04/18 09:49:28;;;;;;;5.95;3.65;;;12.30;92.50;;;;;;10495497;28;20027;-65
2023/04/18 09:54:31;;;;;;;7.30;4.20;;;12.30;92.40;;;;;;10493327;28;20028;-64
2023/04/18 09:59:41;;;;;;;6.50;3.95;;;12.40;92.40;;;;;;10494819;28;20045;-65
2023/04/18 10:04:44;;;;;;;10.80;4.93;;;12.40;92.40;;;;;;10489619;28;20024;-64
2023/04/18 10:09:45;;;;;;;5.43;3.53;;;12.50;92.40;;;;;;10494324;28;20032;-65
2023/04/18 10:14:46;;;;;;;5.47;3.38;;;12.60;92.40;;;;;;10481155;28;20044;-65
2023/04/18 10:20:03;;;;;;;5.38;3.53;;;12.60;92.30;;;;;;10476290;28;20054;-65
2023/04/18 10:25:05;;;;;;;6.50;3.80;;;12.60;92.50;;;;;;10482309;28;20020;-65
2023/04/18 10:30:06;;;;;;;6.25;3.92;;;12.10;92.20;;;;;;10484255;28;20025;-64
2023/04/18 10:35:11;;;;;;;7.32;4.05;;;12.70;92.60;;;;;;10486452;28;20085;-65
2023/04/18 10:40:11;;;;;;;6.68;4.00;;;12.80;92.30;;;;;;10474231;28;20036;-65
2023/04/18 10:45:22;;;;;;;7.30;4.15;;;12.80;92.30;;;;;;10487562;28;20029;-64
2023/04/18 10:50:22;;;;;;;6.53;4.13;;;12.80;92.40;;;;;;10482628;28;20021;-64
2023/04/18 10:55:29;;;;;;;8.40;3.97;;;12.90;92.30;;;;;;10493919;28;20031;-64
2023/04/18 11:00:30;;;;;;;6.55;3.70;;;13.00;92.40;;;;;;10473641;28;20376;-65
2023/04/18 11:05:31;;;;;;;6.65;4.05;;;13.10;92.30;;;;;;10478344;28;20074;-66
2023/04/18 11:10:31;;;;;;;6.65;4.28;;;13.10;92.30;;;;;;10479617;28;20115;-64
2023/04/18 11:15:35;;;;;;;6.65;4.25;;;13.10;92.30;;;;;;10474200;28;20099;-65
2023/04/18 11:20:38;;;;;;;6.68;4.15;;;13.20;92.40;;;;;;10460687;28;20046;-65
2023/04/18 11:25:39;;;;;;;5.75;4.03;;;13.20;92.40;;;;;;10468697;28;20380;-64
2023/04/18 11:30:40;;;;;;;5.80;4.35;;;13.30;92.40;;;;;;10480449;28;20016;-65
2023/04/18 11:35:43;;;;;;;8.93;4.63;;;13.30;92.40;;;;;;10480300;28;20024;-64
2023/04/18 11:40:47;;;;;;;5.65;3.92;;;13.40;92.30;;;;;;10485913;28;20512;-65
2023/04/18 11:45:56;;;;;;;6.95;4.22;;;13.50;92.20;;;;;;10481262;28;20487;-66
2023/04/18 11:50:57;;;;;;;9.00;4.32;;;13.50;92.30;;;;;;10486407;28;20021;-64
2023/04/18 11:55:58;;;;;;;6.68;3.95;;;13.60;92.20;;;;;;10475586;28;20021;-65
2023/04/18 12:01:19;;;;;;;6.25;3.90;;;13.60;92.30;;;;;;10484355;28;20029;-64
2023/04/18 12:06:20;;;;;;;6.63;4.38;;;13.60;92.30;;;;;;10489014;28;20021;-65
2023/04/18 12:11:20;;;;;;;5.85;4.25;;;13.60;92.30;;;;;;10483188;28;20024;-65
2023/04/18 12:16:26;;;;;;;7.13;4.25;;;13.70;92.30;;;;;;10480576;28;20087;-64
2023/04/18 12:21:29;;;;;;;7.78;4.47;;;13.70;92.30;;;;;;10477764;28;20039;-65
2023/04/18 12:26:44;;;;;;;6.93;4.43;;;13.70;92.30;;;;;;10475739;28;20501;-65
2023/04/18 12:31:46;;;;;;;6.75;4.50;;;13.80;92.30;;;;;;10482547;28;20081;-65
2023/04/18 12:36:48;;;;;;;6.05;4.32;;;13.70;92.30;;;;;;10474701;28;20028;-65
2023/04/18 12:41:49;;;;;;;6.25;3.90;;;13.80;92.30;;;;;;10476748;28;20036;-64
2023/04/18 12:46:50;;;;;;;5.93;4.10;;;13.80;92.30;;;;;;10484158;28;20077;-64
2023/04/18 12:51:50;;;;;;;6.22;4.55;;;13.90;92.30;;;;;;10480182;28;20501;-65
2023/04/18 12:56:51;;;;;;;5.88;4.05;;;14.00;92.30;;;;;;10483038;28;20024;-66
2023/04/18 13:01:51;;;;;;;6.68;4.70;;;14.10;92.20;;;;;;10486072;28;20021;-68
2023/04/18 13:06:52;;;;;;;6.78;4.60;;;14.10;92.20;;;;;;10485858;28;20032;-67
2023/04/18 13:11:52;;;;;;;7.78;4.63;;;14.20;92.20;;;;;;10480443;28;20031;-68
2023/04/18 13:16:53;;;;;;;6.25;4.10;;;14.20;92.20;;;;;;10482428;28;20361;-68
2023/04/18 13:21:54;;;;;;;6.20;4.30;;;14.40;92.20;;;;;;10479378;28;20043;-68
2023/04/18 13:26:55;;;;;;;6.50;4.38;;;14.40;92.20;;;;;;10482422;28;20040;-67
2023/04/18 13:31:55;;;;;;;5.95;4.38;;;14.40;92.20;;;;;;10483819;28;20442;-68
2023/04/18 13:36:56;;;;;;;8.35;4.90;;;14.50;92.20;;;;;;10474836;28;20040;-68
2023/04/18 13:41:57;;;;;;;7.43;4.47;;;14.70;92.20;;;;;;10482346;28;20039;-66
2023/04/18 13:46:58;;;;;;;7.20;4.45;;;14.70;92.10;;;;;;10469073;28;20031;-67
2023/04/18 13:51:59;;;;;;;8.85;5.15;;;14.70;92.10;;;;;;10462589;28;20412;-66
2023/04/18 13:57:03;;;;;;;6.75;4.53;;;14.70;92.20;;;;;;10448971;28;20029;-67
2023/04/18 14:02:04;;;;;;;7.95;4.60;;;14.80;92.20;;;;;;10475146;28;20515;-64
2023/04/18 14:07:07;;;;;;;5.72;3.97;;;14.90;92.10;;;;;;10478718;28;20105;-65
2023/04/18 14:12:08;;;;;;;6.28;4.70;;;15.00;92.00;;;;;;10484984;28;20449;-65
2023/04/18 14:17:09;;;;;;;7.38;4.78;;;15.20;91.90;;;;;;10478213;28;20033;-64
2023/04/18 14:22:09;;;;;;;10.65;4.72;;;15.30;91.80;;;;;;10476686;28;20024;-65
2023/04/18 14:27:10;;;;;;;7.10;4.15;;;15.40;91.80;;;;;;10487446;28;20101;-65
2023/04/18 14:32:11;;;;;;;11.60;6.38;;;15.40;91.80;;;;;;10484110;28;20012;-67
2023/04/18 14:37:13;;;;;;;9.50;6.65;;;15.50;91.00;;;;;;10477394;28;20048;-67
2023/04/18 14:42:14;;;;;;;9.15;6.43;;;15.80;88.90;;;;;;10482029;28;20043;-66
2023/04/18 14:47:15;;;;;;;9.80;5.90;;;15.90;87.10;;;;;;10477163;28;20108;-66
2023/04/18 14:52:16;;;;;;;6.55;4.90;;;15.80;85.20;;;;;;10484195;28;20021;-67
2023/04/18 14:57:17;;;;;;;6.45;4.20;;;16.10;84.20;;;;;;10475731;28;20031;-68
2023/04/18 15:02:17;;;;;;;6.10;4.22;;;16.40;83.50;;;;;;10474912;28;20075;-67
2023/04/18 15:07:18;;;;;;;6.90;4.60;;;16.50;82.00;;;;;;10481365;28;20067;-67
2023/04/18 15:12:18;;;;;;;5.65;4.03;;;16.50;80.10;;;;;;10478679;28;20033;-67
2023/04/18 15:17:19;;;;;;;5.68;4.10;;;16.50;80.00;;;;;;10484223;28;20029;-64
2023/04/18 15:22:19;;;;;;;5.68;3.80;;;16.60;79.40;;;;;;10488641;28;20488;-66
2023/04/18 15:27:20;;;;;;;5.45;4.50;;;16.60;78.80;;;;;;10484232;28;20863;-65
2023/04/18 15:32:21;;;;;;;4.18;3.28;;;16.60;78.70;;;;;;10485263;28;20032;-65
2023/04/18 15:37:22;;;;;;;8.10;4.80;;;16.70;78.20;;;;;;10476928;28;20060;-66
2023/04/18 15:42:23;;;;;;;8.18;5.38;;;16.80;77.90;;;;;;10477030;28;20076;-64
2023/04/18 15:47:23;;;;;;;7.20;5.13;;;16.50;77.30;;;;;;10478165;28;20025;-66
2023/04/18 15:52:24;;;;;;;8.43;5.85;;;16.50;78.10;;;;;;10484823;28;20023;-66
2023/04/18 15:57:25;;;;;;;8.55;5.47;;;16.10;77.60;;;;;;10481283;28;20083;-66
2023/04/18 16:02:26;;;;;;;7.60;5.65;;;16.00;77.90;;;;;;10475785;28;20016;-65
2023/04/18 16:07:26;;;;;;;6.65;5.50;;;15.90;79.00;;;;;;10487428;28;20215;-66
2023/04/18 16:12:27;;;;;;;8.13;6.20;;;15.80;78.80;;;;;;10483049;28;20024;-66
2023/04/18 16:17:28;;;;;;;10.10;7.13;;;15.60;79.10;;;;;;10495147;28;20021;-66
2023/04/18 16:22:29;;;;;;;8.82;6.53;;;15.30;79.60;;;;;;10477579;28;20088;-68
2023/04/18 16:27:29;;;;;;;9.45;6.60;;;14.90;80.20;;;;;;10450620;28;20025;-68
2023/04/18 16:32:30;;;;;;;9.50;6.68;;;14.80;80.80;;;;;;10452260;28;20360;-69
2023/04/18 16:37:31;;;;;;;6.78;5.28;;;15.00;81.50;;;;;;10453290;28;20029;-68
2023/04/18 16:42:32;;;;;;;9.90;6.10;;;15.30;81.80;;;;;;10486763;28;20368;-66
2023/04/18 16:47:33;;;;;;;5.55;4.72;;;15.50;81.70;;;;;;10466983;28;20555;-66
2023/04/18 16:52:33;;;;;;;8.02;5.70;;;15.60;82.00;;;;;;10464023;28;20077;-66
2023/04/18 16:57:34;;;;;;;10.73;5.13;;;15.70;82.20;;;;;;10494016;28;20039;-66
2023/04/18 17:02:34;;;;;;;6.22;4.85;;;15.90;82.60;;;;;;10489628;28;20020;-66
2023/04/18 17:07:35;;;;;;;7.47;4.57;;;15.90;83.20;;;;;;10488817;28;20020;-66
2023/04/18 17:12:37;;;;;;;6.80;4.90;;;16.00;83.40;;;;;;10487103;28;20035;-66
2023/04/18 17:17:37;;;;;;;5.97;4.78;;;16.00;83.70;;;;;;10494086;28;20032;-66
2023/04/18 17:22:39;;;;;;;6.72;4.25;;;16.00;84.00;;;;;;10477802;28;20519;-66
2023/04/18 17:27:40;;;;;;;6.70;4.35;;;16.00;84.30;;;;;;10484814;28;20064;-67
2023/04/18 17:32:44;;;;;;;7.60;5.00;;;16.00;84.60;;;;;;10481617;28;20052;-66
2023/04/18 17:37:48;;;;;;;4.97;4.03;;;16.00;85.00;;;;;;10489534;28;20020;-67
2023/04/18 17:42:49;;;;;;;6.00;4.28;;;15.90;85.20;;;;;;10478068;28;20029;-66
2023/04/18 17:47:50;;;;;;;5.57;4.05;;;15.90;85.60;;;;;;10475705;28;20025;-66
2023/04/18 17:52:51;;;;;;;6.90;4.45;;;15.80;86.00;;;;;;10491106;28;20025;-66
2023/04/18 17:57:51;;;;;;;6.30;4.60;;;15.80;86.20;;;;;;10490479;28;20487;-66
2023/04/18 18:02:52;;;;;;;5.80;4.60;;;15.80;86.60;;;;;;10490007;28;20024;-66
2023/04/18 18:07:55;;;;;;;7.72;4.65;;;15.70;86.80;;;;;;10488268;28;20063;-66
2023/04/18 18:12:55;;;;;;;6.15;4.82;;;15.70;87.60;;;;;;10490233;28;20104;-66
2023/04/18 18:17:56;;;;;;;5.20;3.85;;;15.60;87.20;;;;;;10491339;28;20119;-66
2023/04/18 18:22:58;;;;;;;7.20;4.30;;;15.60;87.60;;;;;;10482533;28;20029;-66
2023/04/18 18:28:00;;;;;;;6.82;5.07;;;15.50;87.80;;;;;;10481905;28;20036;-66
2023/04/18 18:33:02;;;;;;;5.18;4.10;;;15.50;87.90;;;;;;10487853;28;20103;-67
2023/04/18 18:38:02;;;;;;;5.88;4.32;;;15.50;88.20;;;;;;10500148;28;20051;-67
2023/04/18 18:43:03;;;;;;;4.93;4.03;;;15.40;88.40;;;;;;10487950;28;20028;-67
2023/04/18 18:48:05;;;;;;;4.30;3.90;;;15.40;89.10;;;;;;10488464;28;20853;-67
2023/04/18 18:53:06;;;;;;;6.35;4.05;;;15.30;88.70;;;;;;10484342;28;20012;-67
2023/04/18 18:58:07;;;;;;;5.28;4.10;;;15.30;88.90;;;;;;10481954;28;20024;-67
2023/04/18 19:03:08;;;;;;;4.78;3.92;;;15.10;88.90;;;;;;10491434;28;20029;-67
2023/04/18 19:08:09;;;;;;;6.22;4.00;;;15.30;89.30;;;;;;10487219;28;20391;-67
2023/04/18 19:13:09;;;;;;;4.15;3.60;;;15.10;89.30;;;;;;10489329;28;20043;-67
2023/04/18 19:18:11;;;;;;;5.40;3.92;;;15.10;89.40;;;;;;10484129;28;20021;-67
2023/04/18 19:23:11;;;;;;;6.78;4.18;;;15.00;89.50;;;;;;10466995;28;20408;-67
2023/04/18 19:28:13;;;;;;;4.93;3.88;;;15.30;89.80;;;;;;10480776;28;20021;-67
2023/04/18 19:33:13;;;;;;;5.18;4.03;;;15.00;89.70;;;;;;10470086;28;20289;-68
2023/04/18 19:38:14;;;;;;;5.18;4.00;;;15.00;89.80;;;;;;10474982;28;20496;-67
2023/04/18 19:43:15;;;;;;;4.93;3.90;;;14.90;90.00;;;;;;10476267;28;20021;-67
2023/04/18 19:48:16;;;;;;;4.65;3.72;;;14.80;90.00;;;;;;10474016;28;20070;-67
2023/04/18 19:53:17;;;;;;;4.45;3.47;;;14.80;90.00;;;;;;10470811;28;20021;-67
2023/04/18 19:58:43;;;;;;;5.32;3.40;;;14.80;90.10;;;;;;10486285;28;20078;-67
2023/04/18 20:03:44;;;;;;;6.70;3.50;;;14.70;90.00;;;;;;10492930;28;20023;-67
2023/04/18 20:08:45;;;;;;;5.93;3.72;;;14.70;90.20;;;;;;10481382;28;20079;-67
2023/04/18 20:13:45;;;;;;;6.28;3.60;;;14.60;90.20;;;;;;10486993;28;20492;-67
2023/04/18 20:18:48;;;;;;;4.38;3.22;;;14.60;90.20;;;;;;10473944;28;20032;-67
2023/04/18 20:23:48;;;;;;;4.63;3.60;;;14.60;90.20;;;;;;10468593;28;20054;-67
2023/04/18 20:28:49;;;;;;;4.93;3.63;;;14.50;90.30;;;;;;10472663;28;20036;-67
2023/04/18 20:33:50;;;;;;;4.38;3.50;;;14.50;90.30;;;;;;10477623;28;20024;-67
2023/04/18 20:38:50;;;;;;;5.32;3.60;;;14.50;90.40;;;;;;10481366;28;20024;-66
2023/04/18 20:43:52;;;;;;;4.53;3.28;;;14.40;90.40;;;;;;10480040;28;20020;-66
2023/04/18 20:48:53;;;;;;;4.40;3.22;;;14.40;90.40;;;;;;10467717;28;20032;-66
2023/04/18 20:53:53;;;;;;;4.47;3.38;;;14.30;90.40;;;;;;10472577;28;20021;-66
2023/04/18 20:58:54;;;;;;;4.65;3.22;;;14.30;90.50;;;;;;10474048;28;20115;-66
2023/04/18 21:03:55;;;;;;;4.63;3.45;;;14.30;90.50;;;;;;10474531;28;20029;-66
2023/04/18 21:08:55;;;;;;;4.97;3.35;;;14.30;90.50;;;;;;10487369;28;20065;-66
2023/04/18 21:13:56;;;;;;;4.93;3.47;;;14.20;90.60;;;;;;10479952;28;20024;-69
2023/04/18 21:18:56;;;;;;;4.43;3.58;;;14.20;90.60;;;;;;10471425;28;20029;-67
2023/04/18 21:23:57;;;;;;;6.03;3.70;;;14.10;90.60;;;;;;10483015;28;20078;-66
2023/04/18 21:29:00;;;;;;;4.72;3.65;;;14.10;90.60;;;;;;10479163;28;20024;-66
2023/04/18 21:34:03;;;;;;;6.07;3.65;;;14.10;90.60;;;;;;10471991;28;20340;-66
2023/04/18 21:39:03;;;;;;;5.05;3.65;;;14.00;90.60;;;;;;10476790;28;20033;-67
2023/04/18 21:44:04;;;;;;;5.30;3.65;;;14.00;90.70;;;;;;10478854;28;20027;-65
2023/04/18 21:49:05;;;;;;;5.00;3.63;;;14.00;90.70;;;;;;10472674;28;20477;-66
2023/04/18 21:54:06;;;;;;;5.15;3.58;;;13.90;90.70;;;;;;10481953;28;20411;-66
2023/04/18 21:59:08;;;;;;;6.07;4.10;;;13.90;90.70;;;;;;10495771;28;20028;-66
2023/04/18 22:04:11;;;;;;;5.30;3.80;;;13.90;90.80;;;;;;10476277;28;20099;-66
2023/04/18 22:09:11;;;;;;;5.38;4.05;;;13.90;90.80;;;;;;10485973;28;20495;-66
2023/04/18 22:14:13;;;;;;;7.03;3.90;;;13.80;90.80;;;;;;10490254;28;20021;-67
2023/04/18 22:19:14;;;;;;;6.43;4.35;;;13.80;90.80;;;;;;10485743;28;20431;-66
2023/04/18 22:24:14;;;;;;;6.43;4.38;;;13.80;90.80;;;;;;10490800;28;20040;-66
2023/04/18 22:29:15;;;;;;;6.10;4.15;;;13.80;90.80;;;;;;10485449;28;21106;-66
2023/04/18 22:34:15;;;;;;;5.40;3.83;;;13.70;90.90;;;;;;10477682;28;20438;-66
2023/04/18 22:39:16;;;;;;;5.93;4.35;;;13.70;90.90;;;;;;10485748;28;20032;-67
2023/04/18 22:44:16;;;;;;;6.47;4.18;;;13.70;90.90;;;;;;10497641;28;20028;-66
2023/04/18 22:49:17;;;;;;;6.78;4.60;;;13.60;90.90;;;;;;10485531;28;20032;-67
2023/04/18 22:54:18;;;;;;;5.20;4.22;;;13.60;91.00;;;;;;10479047;28;20075;-65
2023/04/18 22:59:18;;;;;;;5.75;4.15;;;13.60;91.00;;;;;;10495288;28;20029;-66
2023/04/18 23:04:19;;;;;;;6.80;4.88;;;13.60;91.00;;;;;;10479941;28;20495;-66
2023/04/18 23:09:19;;;;;;;6.70;4.35;;;13.50;91.00;;;;;;10492819;28;20479;-67
2023/04/18 23:14:20;;;;;;;7.75;4.80;;;13.50;91.10;;;;;;10490946;28;20017;-66
2023/04/18 23:19:21;;;;;;;5.78;4.47;;;13.50;91.10;;;;;;10477980;28;20035;-66
2023/04/18 23:24:21;;;;;;;6.85;4.38;;;13.50;91.10;;;;;;10502706;28;20523;-66
2023/04/18 23:29:22;;;;;;;5.60;4.20;;;13.40;91.10;;;;;;10498413;28;20164;-66
2023/04/18 23:34:23;;;;;;;6.63;4.50;;;13.40;91.20;;;;;;10492760;28;20016;-66
2023/04/18 23:39:25;;;;;;;6.22;4.25;;;13.40;91.20;;;;;;10504940;28;20028;-67
2023/04/18 23:44:25;;;;;;;8.52;4.78;;;13.30;91.20;;;;;;10506881;28;20048;-66
2023/04/18 23:49:27;;;;;;;6.55;4.40;;;13.40;91.20;;;;;;10502214;28;20120;-66
2023/04/18 23:54:27;;;;;;;8.05;4.63;;;13.30;91.20;;;;;;10502653;28;20056;-66
2023/04/18 23:59:28;;;;;;;6.72;4.25;;;13.30;91.30;;;;;;10506653;28;20064;-66
